sensor_id;sensor_type;location;lat;lon;timestamp;temperature;humidity
74511;DHT22;62991;50.040;18.400;2024-01-10T00:01:47;-9.50;53.50
74511;DHT22;62991;50.040;18.400;2024-01-10T00:04:48;-9.50;53.70
74511;DHT22;62991;50.040;18.400;2024-01-10T00:07:49;-9.40;53.50
74511;DHT22;62991;50.040;18.400;2024-01-10T00:10:51;-9.50;53.70
74511;DHT22;62991;50.040;18.400;2024-01-10T00:13:52;-9.50;53.40
74511;DHT22;62991;50.040;18.400;2024-01-10T00:16:52;-9.60;53.50
74511;DHT22;62991;50.040;18.400;2024-01-10T00:19:53;-9.50;53.40
74511;DHT22;62991;50.040;18.400;2024-01-10T00:22:54;-9.60;53.20
74511;DHT22;62991;50.040;18.400;2024-01-10T00:25:55;-9.50;53.00
74511;DHT22;62991;50.040;18.400;2024-01-10T00:28:55;-9.60;52.80
74511;DHT22;62991;50.040;18.400;2024-01-10T00:31:56;-9.60;53.00
74511;DHT22;62991;50.040;18.400;2024-01-10T00:34:59;-9.60;53.50
74511;DHT22;62991;50.040;18.400;2024-01-10T00:38:00;-9.50;53.60
74511;DHT22;62991;50.040;18.400;2024-01-10T00:41:01;-9.50;53.60
74511;DHT22;62991;50.040;18.400;2024-01-10T00:44:01;-9.60;53.70
74511;DHT22;62991;50.040;18.400;2024-01-10T00:47:02;-9.70;53.70
74511;DHT22;62991;50.040;18.400;2024-01-10T00:50:03;-9.60;53.60
74511;DHT22;62991;50.040;18.400;2024-01-10T00:53:04;-9.60;53.50
74511;DHT22;62991;50.040;18.400;2024-01-10T00:56:05;-9.70;53.70
74511;DHT22;62991;50.040;18.400;2024-01-10T00:59:06;-9.60;54.10
74511;DHT22;62991;50.040;18.400;2024-01-10T01:02:07;-9.50;53.90
74511;DHT22;62991;50.040;18.400;2024-01-10T01:05:08;-9.50;53.80
74511;DHT22;62991;50.040;18.400;2024-01-10T01:08:08;-9.60;53.70
74511;DHT22;62991;50.040;18.400;2024-01-10T01:11:09;-9.70;53.40
74511;DHT22;62991;50.040;18.400;2024-01-10T01:14:10;-10.00;53.30
74511;DHT22;62991;50.040;18.400;2024-01-10T01:17:11;-10.00;53.40
74511;DHT22;62991;50.040;18.400;2024-01-10T01:20:12;-10.00;53.80
74511;DHT22;62991;50.040;18.400;2024-01-10T01:23:12;-10.10;54.00
74511;DHT22;62991;50.040;18.400;2024-01-10T01:26:13;-10.10;53.50
74511;DHT22;62991;50.040;18.400;2024-01-10T01:29:14;-10.10;53.70
74511;DHT22;62991;50.040;18.400;2024-01-10T01:32:15;-10.00;53.40
74511;DHT22;62991;50.040;18.400;2024-01-10T01:35:16;-9.80;53.30
74511;DHT22;62991;50.040;18.400;2024-01-10T01:38:22;-9.80;53.30
74511;DHT22;62991;50.040;18.400;2024-01-10T01:41:22;-9.90;53.90
74511;DHT22;62991;50.040;18.400;2024-01-10T01:44:23;-9.80;53.90
74511;DHT22;62991;50.040;18.400;2024-01-10T01:47:23;-9.70;53.80
74511;DHT22;62991;50.040;18.400;2024-01-10T01:50:24;-9.60;54.00
74511;DHT22;62991;50.040;18.400;2024-01-10T01:53:25;-9.60;53.80
74511;DHT22;62991;50.040;18.400;2024-01-10T01:56:27;-9.60;53.70
74511;DHT22;62991;50.040;18.400;2024-01-10T01:59:27;-9.60;53.80
74511;DHT22;62991;50.040;18.400;2024-01-10T02:02:30;-9.40;53.40
74511;DHT22;62991;50.040;18.400;2024-01-10T02:05:31;-9.60;53.40
74511;DHT22;62991;50.040;18.400;2024-01-10T02:08:35;-9.60;53.90
74511;DHT22;62991;50.040;18.400;2024-01-10T02:11:36;-9.60;53.50
74511;DHT22;62991;50.040;18.400;2024-01-10T02:14:37;-9.70;53.20
74511;DHT22;62991;50.040;18.400;2024-01-10T02:17:37;-9.70;53.50
74511;DHT22;62991;50.040;18.400;2024-01-10T02:20:38;-9.60;53.60
74511;DHT22;62991;50.040;18.400;2024-01-10T02:23:39;-9.60;53.50
74511;DHT22;62991;50.040;18.400;2024-01-10T02:26:40;-9.70;53.60
74511;DHT22;62991;50.040;18.400;2024-01-10T02:29:41;-9.60;53.60
74511;DHT22;62991;50.040;18.400;2024-01-10T02:32:41;-9.70;53.30
74511;DHT22;62991;50.040;18.400;2024-01-10T02:35:42;-9.60;53.40
74511;DHT22;62991;50.040;18.400;2024-01-10T02:38:43;-9.60;53.40
74511;DHT22;62991;50.040;18.400;2024-01-10T02:41:43;-9.70;53.40
74511;DHT22;62991;50.040;18.400;2024-01-10T02:44:44;-9.70;53.60
74511;DHT22;62991;50.040;18.400;2024-01-10T02:47:45;-9.60;53.60
74511;DHT22;62991;50.040;18.400;2024-01-10T02:50:46;-9.60;53.80
74511;DHT22;62991;50.040;18.400;2024-01-10T02:53:46;-9.50;53.70
74511;DHT22;62991;50.040;18.400;2024-01-10T02:56:47;-9.30;53.20
74511;DHT22;62991;50.040;18.400;2024-01-10T02:59:48;-9.50;52.60
74511;DHT22;62991;50.040;18.400;2024-01-10T03:02:48;-9.50;53.10
74511;DHT22;62991;50.040;18.400;2024-01-10T03:05:49;-9.50;52.90
74511;DHT22;62991;50.040;18.400;2024-01-10T03:08:49;-9.60;53.20
74511;DHT22;62991;50.040;18.400;2024-01-10T03:11:50;-9.50;52.80
74511;DHT22;62991;50.040;18.400;2024-01-10T03:14:51;-9.50;52.60
74511;DHT22;62991;50.040;18.400;2024-01-10T03:17:51;-9.60;52.90
74511;DHT22;62991;50.040;18.400;2024-01-10T03:20:52;-9.60;52.90
74511;DHT22;62991;50.040;18.400;2024-01-10T03:23:55;-9.70;53.20
74511;DHT22;62991;50.040;18.400;2024-01-10T03:26:56;-9.60;53.20
74511;DHT22;62991;50.040;18.400;2024-01-10T03:29:57;-9.50;53.00
74511;DHT22;62991;50.040;18.400;2024-01-10T03:32:57;-9.50;52.80
74511;DHT22;62991;50.040;18.400;2024-01-10T03:35:58;-9.50;53.20
74511;DHT22;62991;50.040;18.400;2024-01-10T03:38:59;-9.50;53.60
74511;DHT22;62991;50.040;18.400;2024-01-10T03:41:59;-9.50;53.40
74511;DHT22;62991;50.040;18.400;2024-01-10T03:45:00;-9.40;53.60
74511;DHT22;62991;50.040;18.400;2024-01-10T03:48:00;-9.40;54.30
74511;DHT22;62991;50.040;18.400;2024-01-10T03:51:01;-9.60;54.40
74511;DHT22;62991;50.040;18.400;2024-01-10T03:54:02;-9.70;54.30
74511;DHT22;62991;50.040;18.400;2024-01-10T03:57:04;-10.10;54.60
74511;DHT22;62991;50.040;18.400;2024-01-10T04:00:05;-10.00;54.70
74511;DHT22;62991;50.040;18.400;2024-01-10T04:03:06;-10.10;54.30
74511;DHT22;62991;50.040;18.400;2024-01-10T04:06:07;-10.20;54.50
74511;DHT22;62991;50.040;18.400;2024-01-10T04:09:08;-10.10;54.50
74511;DHT22;62991;50.040;18.400;2024-01-10T04:12:10;-9.90;54.20
74511;DHT22;62991;50.040;18.400;2024-01-10T04:15:12;-9.90;53.80
74511;DHT22;62991;50.040;18.400;2024-01-10T04:18:12;-9.80;53.70
74511;DHT22;62991;50.040;18.400;2024-01-10T04:21:13;-9.90;53.60
74511;DHT22;62991;50.040;18.400;2024-01-10T04:24:14;-9.90;53.30
74511;DHT22;62991;50.040;18.400;2024-01-10T04:27:14;-10.00;53.30
74511;DHT22;62991;50.040;18.400;2024-01-10T04:30:15;-9.90;53.40
74511;DHT22;62991;50.040;18.400;2024-01-10T04:33:16;-9.80;53.60
74511;DHT22;62991;50.040;18.400;2024-01-10T04:36:17;-9.70;53.40
74511;DHT22;62991;50.040;18.400;2024-01-10T04:39:17;-9.70;53.40
74511;DHT22;62991;50.040;18.400;2024-01-10T04:42:19;-10.00;53.50
74511;DHT22;62991;50.040;18.400;2024-01-10T04:45:19;-10.10;53.40
74511;DHT22;62991;50.040;18.400;2024-01-10T04:48:20;-10.10;53.30
74511;DHT22;62991;50.040;18.400;2024-01-10T04:51:21;-10.10;53.20
74511;DHT22;62991;50.040;18.400;2024-01-10T04:54:21;-10.30;53.30
74511;DHT22;62991;50.040;18.400;2024-01-10T04:57:22;-10.20;53.30
74511;DHT22;62991;50.040;18.400;2024-01-10T05:00:23;-10.30;53.40
74511;DHT22;62991;50.040;18.400;2024-01-10T05:03:23;-10.30;53.60
74511;DHT22;62991;50.040;18.400;2024-01-10T05:06:24;-10.40;53.80
74511;DHT22;62991;50.040;18.400;2024-01-10T05:09:25;-10.40;53.90
74511;DHT22;62991;50.040;18.400;2024-01-10T05:12:25;-10.40;53.80
74511;DHT22;62991;50.040;18.400;2024-01-10T05:15:26;-10.40;54.00
74511;DHT22;62991;50.040;18.400;2024-01-10T05:18:27;-10.60;54.40
74511;DHT22;62991;50.040;18.400;2024-01-10T05:21:27;-10.60;54.60
74511;DHT22;62991;50.040;18.400;2024-01-10T05:24:28;-10.80;55.10
74511;DHT22;62991;50.040;18.400;2024-01-10T05:27:29;-10.70;55.20
74511;DHT22;62991;50.040;18.400;2024-01-10T05:30:29;-10.70;55.00
74511;DHT22;62991;50.040;18.400;2024-01-10T05:33:30;-10.60;55.20
74511;DHT22;62991;50.040;18.400;2024-01-10T05:36:31;-10.60;54.90
74511;DHT22;62991;50.040;18.400;2024-01-10T05:39:32;-10.70;55.20
74511;DHT22;62991;50.040;18.400;2024-01-10T05:42:32;-10.90;55.70
74511;DHT22;62991;50.040;18.400;2024-01-10T05:45:33;-10.80;55.90
74511;DHT22;62991;50.040;18.400;2024-01-10T05:48:33;-10.60;55.40
74511;DHT22;62991;50.040;18.400;2024-01-10T05:51:34;-10.70;55.60
74511;DHT22;62991;50.040;18.400;2024-01-10T05:54:35;-10.60;55.40
74511;DHT22;62991;50.040;18.400;2024-01-10T05:57:36;-10.70;55.40
74511;DHT22;62991;50.040;18.400;2024-01-10T06:00:37;-10.70;55.20
74511;DHT22;62991;50.040;18.400;2024-01-10T06:03:38;-10.60;55.10
74511;DHT22;62991;50.040;18.400;2024-01-10T06:06:39;-10.60;55.20
74511;DHT22;62991;50.040;18.400;2024-01-10T06:09:40;-10.40;54.90
74511;DHT22;62991;50.040;18.400;2024-01-10T06:12:40;-10.50;54.70
74511;DHT22;62991;50.040;18.400;2024-01-10T06:15:41;-10.70;55.20
74511;DHT22;62991;50.040;18.400;2024-01-10T06:18:42;-10.70;55.10
74511;DHT22;62991;50.040;18.400;2024-01-10T06:21:42;-10.70;55.20
74511;DHT22;62991;50.040;18.400;2024-01-10T06:24:43;-10.70;55.30
74511;DHT22;62991;50.040;18.400;2024-01-10T06:27:44;-10.60;55.90
74511;DHT22;62991;50.040;18.400;2024-01-10T06:30:45;-10.70;56.20
74511;DHT22;62991;50.040;18.400;2024-01-10T06:33:46;-10.60;55.80
74511;DHT22;62991;50.040;18.400;2024-01-10T06:36:46;-10.70;56.10
74511;DHT22;62991;50.040;18.400;2024-01-10T06:39:48;-10.60;55.80
74511;DHT22;62991;50.040;18.400;2024-01-10T06:42:48;-10.60;55.50
74511;DHT22;62991;50.040;18.400;2024-01-10T06:45:49;-10.60;55.10
74511;DHT22;62991;50.040;18.400;2024-01-10T06:48:50;-10.60;54.70
74511;DHT22;62991;50.040;18.400;2024-01-10T06:51:50;-10.60;55.40
74511;DHT22;62991;50.040;18.400;2024-01-10T06:54:51;-10.40;55.50
74511;DHT22;62991;50.040;18.400;2024-01-10T06:57:52;-10.30;54.70
74511;DHT22;62991;50.040;18.400;2024-01-10T07:00:55;-10.50;54.70
74511;DHT22;62991;50.040;18.400;2024-01-10T07:03:56;-10.30;54.70
74511;DHT22;62991;50.040;18.400;2024-01-10T07:06:57;-10.40;54.80
74511;DHT22;62991;50.040;18.400;2024-01-10T07:09:57;-10.30;54.80
74511;DHT22;62991;50.040;18.400;2024-01-10T07:12:58;-10.10;54.50
74511;DHT22;62991;50.040;18.400;2024-01-10T07:15:59;-10.20;55.50
74511;DHT22;62991;50.040;18.400;2024-01-10T07:19:02;-10.00;54.80
74511;DHT22;62991;50.040;18.400;2024-01-10T07:22:03;-9.90;54.60
74511;DHT22;62991;50.040;18.400;2024-01-10T07:25:03;-10.00;54.40
74511;DHT22;62991;50.040;18.400;2024-01-10T07:28:04;-9.90;54.80
74511;DHT22;62991;50.040;18.400;2024-01-10T07:31:05;-9.80;54.90
74511;DHT22;62991;50.040;18.400;2024-01-10T07:34:06;-9.80;54.40
74511;DHT22;62991;50.040;18.400;2024-01-10T07:37:07;-9.60;54.50
74511;DHT22;62991;50.040;18.400;2024-01-10T07:40:09;-9.60;54.60
74511;DHT22;62991;50.040;18.400;2024-01-10T07:43:11;-9.40;54.40
74511;DHT22;62991;50.040;18.400;2024-01-10T07:46:11;-9.30;54.00
74511;DHT22;62991;50.040;18.400;2024-01-10T07:49:12;-9.00;54.40
74511;DHT22;62991;50.040;18.400;2024-01-10T07:52:13;-8.80;53.60
74511;DHT22;62991;50.040;18.400;2024-01-10T07:55:13;-8.70;53.00
74511;DHT22;62991;50.040;18.400;2024-01-10T07:58:14;-8.70;52.70
74511;DHT22;62991;50.040;18.400;2024-01-10T08:01:16;-8.70;52.80
74511;DHT22;62991;50.040;18.400;2024-01-10T08:04:17;-8.60;53.10
74511;DHT22;62991;50.040;18.400;2024-01-10T08:07:18;-8.60;53.10
74511;DHT22;62991;50.040;18.400;2024-01-10T08:10:20;-8.40;53.90
74511;DHT22;62991;50.040;18.400;2024-01-10T08:13:21;-8.50;52.80
74511;DHT22;62991;50.040;18.400;2024-01-10T08:16:21;-8.50;53.70
74511;DHT22;62991;50.040;18.400;2024-01-10T08:19:22;-8.50;52.90
74511;DHT22;62991;50.040;18.400;2024-01-10T08:22:22;-8.50;53.10
74511;DHT22;62991;50.040;18.400;2024-01-10T08:25:23;-8.40;54.00
74511;DHT22;62991;50.040;18.400;2024-01-10T08:28:24;-8.30;53.20
74511;DHT22;62991;50.040;18.400;2024-01-10T08:31:26;-8.30;53.20
74511;DHT22;62991;50.040;18.400;2024-01-10T08:34:27;-8.60;54.20
74511;DHT22;62991;50.040;18.400;2024-01-10T08:37:28;-8.70;54.90
74511;DHT22;62991;50.040;18.400;2024-01-10T08:40:28;-8.50;55.00
74511;DHT22;62991;50.040;18.400;2024-01-10T08:43:29;-8.50;55.50
74511;DHT22;62991;50.040;18.400;2024-01-10T08:46:31;-8.40;55.60
74511;DHT22;62991;50.040;18.400;2024-01-10T08:49:32;-8.30;55.60
74511;DHT22;62991;50.040;18.400;2024-01-10T08:52:32;-8.20;56.30
74511;DHT22;62991;50.040;18.400;2024-01-10T08:55:33;-8.10;56.20
74511;DHT22;62991;50.040;18.400;2024-01-10T08:58:34;-8.10;57.10
74511;DHT22;62991;50.040;18.400;2024-01-10T09:01:35;-7.80;56.70
74511;DHT22;62991;50.040;18.400;2024-01-10T09:04:35;-7.60;57.90
74511;DHT22;62991;50.040;18.400;2024-01-10T09:07:36;-7.70;57.30
74511;DHT22;62991;50.040;18.400;2024-01-10T09:10:38;-7.70;57.40
74511;DHT22;62991;50.040;18.400;2024-01-10T09:13:38;-7.70;57.60
74511;DHT22;62991;50.040;18.400;2024-01-10T09:16:40;-7.70;57.90
74511;DHT22;62991;50.040;18.400;2024-01-10T09:19:41;-7.60;57.90
74511;DHT22;62991;50.040;18.400;2024-01-10T09:22:42;-7.40;57.70
74511;DHT22;62991;50.040;18.400;2024-01-10T09:25:42;-7.30;57.30
74511;DHT22;62991;50.040;18.400;2024-01-10T09:28:43;-6.90;57.20
74511;DHT22;62991;50.040;18.400;2024-01-10T09:31:44;-6.70;57.20
74511;DHT22;62991;50.040;18.400;2024-01-10T09:34:44;-6.80;57.70
74511;DHT22;62991;50.040;18.400;2024-01-10T09:37:45;-6.90;57.60
74511;DHT22;62991;50.040;18.400;2024-01-10T09:40:46;-6.80;57.10
74511;DHT22;62991;50.040;18.400;2024-01-10T09:43:46;-6.80;57.00
74511;DHT22;62991;50.040;18.400;2024-01-10T09:46:54;-6.40;56.90
74511;DHT22;62991;50.040;18.400;2024-01-10T09:49:55;-6.20;56.80
74511;DHT22;62991;50.040;18.400;2024-01-10T09:53:06;-5.90;56.10
74511;DHT22;62991;50.040;18.400;2024-01-10T09:56:09;-5.70;55.90
74511;DHT22;62991;50.040;18.400;2024-01-10T09:59:10;-5.70;56.20
74511;DHT22;62991;50.040;18.400;2024-01-10T10:02:12;-5.50;56.50
74511;DHT22;62991;50.040;18.400;2024-01-10T10:05:17;-5.40;56.60
74511;DHT22;62991;50.040;18.400;2024-01-10T10:08:17;-5.40;56.50
74511;DHT22;62991;50.040;18.400;2024-01-10T10:11:22;-5.20;56.40
74511;DHT22;62991;50.040;18.400;2024-01-10T10:14:24;-5.10;56.00
74511;DHT22;62991;50.040;18.400;2024-01-10T10:17:28;-4.90;55.90
74511;DHT22;62991;50.040;18.400;2024-01-10T10:20:30;-4.90;56.10
74511;DHT22;62991;50.040;18.400;2024-01-10T10:23:37;-4.60;55.90
74511;DHT22;62991;50.040;18.400;2024-01-10T10:26:37;-4.30;55.30
74511;DHT22;62991;50.040;18.400;2024-01-10T10:29:38;-4.10;54.70
74511;DHT22;62991;50.040;18.400;2024-01-10T10:32:39;-4.20;55.00
74511;DHT22;62991;50.040;18.400;2024-01-10T10:35:40;-4.30;55.50
74511;DHT22;62991;50.040;18.400;2024-01-10T10:38:41;-4.00;55.80
74511;DHT22;62991;50.040;18.400;2024-01-10T10:41:42;-3.40;55.20
74511;DHT22;62991;50.040;18.400;2024-01-10T10:44:44;-3.00;54.80
74511;DHT22;62991;50.040;18.400;2024-01-10T10:47:46;-2.60;53.30
74511;DHT22;62991;50.040;18.400;2024-01-10T10:51:01;-2.30;52.50
74511;DHT22;62991;50.040;18.400;2024-01-10T10:54:04;-1.80;51.60
74511;DHT22;62991;50.040;18.400;2024-01-10T10:57:06;-1.80;50.70
74511;DHT22;62991;50.040;18.400;2024-01-10T11:00:08;-1.50;51.00
74511;DHT22;62991;50.040;18.400;2024-01-10T11:03:11;-1.20;50.60
74511;DHT22;62991;50.040;18.400;2024-01-10T11:06:12;-0.60;50.30
74511;DHT22;62991;50.040;18.400;2024-01-10T11:09:15;-0.10;49.40
74511;DHT22;62991;50.040;18.400;2024-01-10T11:26:16;1.10;45.10
74511;DHT22;62991;50.040;18.400;2024-01-10T11:29:17;1.50;44.50
74511;DHT22;62991;50.040;18.400;2024-01-10T11:32:21;3.00;43.80
74511;DHT22;62991;50.040;18.400;2024-01-10T11:35:23;10.00;34.50
74511;DHT22;62991;50.040;18.400;2024-01-10T11:38:27;16.80;26.80
74511;DHT22;62991;50.040;18.400;2024-01-10T11:41:33;22.10;22.70
74511;DHT22;62991;50.040;18.400;2024-01-10T11:44:47;25.80;20.30
74511;DHT22;62991;50.040;18.400;2024-01-10T11:47:50;28.50;18.50
74511;DHT22;62991;50.040;18.400;2024-01-10T11:50:52;30.90;17.00
74511;DHT22;62991;50.040;18.400;2024-01-10T11:53:53;33.50;16.60
74511;DHT22;62991;50.040;18.400;2024-01-10T11:56:54;35.50;15.70
74511;DHT22;62991;50.040;18.400;2024-01-10T11:59:56;36.70;15.60
74511;DHT22;62991;50.040;18.400;2024-01-10T12:02:56;37.10;15.00
74511;DHT22;62991;50.040;18.400;2024-01-10T12:05:58;38.20;15.10
74511;DHT22;62991;50.040;18.400;2024-01-10T12:08:59;39.40;14.80
74511;DHT22;62991;50.040;18.400;2024-01-10T12:12:00;40.40;14.90
74511;DHT22;62991;50.040;18.400;2024-01-10T12:15:00;40.80;14.40
74511;DHT22;62991;50.040;18.400;2024-01-10T12:18:01;41.40;14.50
74511;DHT22;62991;50.040;18.400;2024-01-10T12:21:03;41.70;14.30
74511;DHT22;62991;50.040;18.400;2024-01-10T12:24:08;41.60;14.20
74511;DHT22;62991;50.040;18.400;2024-01-10T12:27:09;41.70;14.00
74511;DHT22;62991;50.040;18.400;2024-01-10T12:30:09;41.50;14.20
74511;DHT22;62991;50.040;18.400;2024-01-10T12:33:10;41.40;13.90
74511;DHT22;62991;50.040;18.400;2024-01-10T12:36:11;41.20;14.00
74511;DHT22;62991;50.040;18.400;2024-01-10T12:39:12;41.00;14.20
74511;DHT22;62991;50.040;18.400;2024-01-10T12:42:12;40.70;14.10
74511;DHT22;62991;50.040;18.400;2024-01-10T12:45:23;40.50;14.10
74511;DHT22;62991;50.040;18.400;2024-01-10T12:48:24;40.10;14.10
74511;DHT22;62991;50.040;18.400;2024-01-10T12:51:24;39.90;13.90
74511;DHT22;62991;50.040;18.400;2024-01-10T12:54:25;39.60;13.70
74511;DHT22;62991;50.040;18.400;2024-01-10T12:57:25;38.90;14.00
74511;DHT22;62991;50.040;18.400;2024-01-10T13:00:26;37.70;13.60
74511;DHT22;62991;50.040;18.400;2024-01-10T13:03:27;36.60;14.00
74511;DHT22;62991;50.040;18.400;2024-01-10T13:06:28;36.50;14.00
74511;DHT22;62991;50.040;18.400;2024-01-10T13:09:28;36.20;14.50
74511;DHT22;62991;50.040;18.400;2024-01-10T13:12:29;35.80;14.20
74511;DHT22;62991;50.040;18.400;2024-01-10T13:15:30;30.30;15.40
74511;DHT22;62991;50.040;18.400;2024-01-10T13:18:31;26.30;16.70
74511;DHT22;62991;50.040;18.400;2024-01-10T13:21:32;23.80;17.90
74511;DHT22;62991;50.040;18.400;2024-01-10T13:24:34;21.70;18.90
74511;DHT22;62991;50.040;18.400;2024-01-10T13:27:34;19.90;19.50
74511;DHT22;62991;50.040;18.400;2024-01-10T13:30:35;18.90;20.80
74511;DHT22;62991;50.040;18.400;2024-01-10T13:33:36;16.80;22.10
74511;DHT22;62991;50.040;18.400;2024-01-10T13:36:37;14.30;23.40
74511;DHT22;62991;50.040;18.400;2024-01-10T13:39:40;13.20;24.70
74511;DHT22;62991;50.040;18.400;2024-01-10T13:42:43;12.30;25.00
74511;DHT22;62991;50.040;18.400;2024-01-10T13:45:44;11.60;25.80
74511;DHT22;62991;50.040;18.400;2024-01-10T13:48:45;11.30;26.80
74511;DHT22;62991;50.040;18.400;2024-01-10T13:51:45;10.70;27.40
74511;DHT22;62991;50.040;18.400;2024-01-10T13:54:46;10.30;27.20
74511;DHT22;62991;50.040;18.400;2024-01-10T13:57:47;9.80;28.70
74511;DHT22;62991;50.040;18.400;2024-01-10T14:00:47;9.40;28.30
74511;DHT22;62991;50.040;18.400;2024-01-10T14:03:48;8.90;29.00
74511;DHT22;62991;50.040;18.400;2024-01-10T14:06:49;8.70;29.30
74511;DHT22;62991;50.040;18.400;2024-01-10T14:09:51;8.50;29.30
74511;DHT22;62991;50.040;18.400;2024-01-10T14:12:54;8.40;29.90
74511;DHT22;62991;50.040;18.400;2024-01-10T14:15:55;8.30;29.70
74511;DHT22;62991;50.040;18.400;2024-01-10T14:18:56;8.10;29.80
74511;DHT22;62991;50.040;18.400;2024-01-10T14:21:56;7.90;29.40
74511;DHT22;62991;50.040;18.400;2024-01-10T14:24:57;7.70;29.80
74511;DHT22;62991;50.040;18.400;2024-01-10T14:27:58;7.60;30.10
74511;DHT22;62991;50.040;18.400;2024-01-10T14:30:59;7.40;29.90
74511;DHT22;62991;50.040;18.400;2024-01-10T14:34:00;7.10;30.00
74511;DHT22;62991;50.040;18.400;2024-01-10T14:37:01;6.20;30.80
74511;DHT22;62991;50.040;18.400;2024-01-10T14:40:02;5.70;31.80
74511;DHT22;62991;50.040;18.400;2024-01-10T14:43:03;5.40;32.90
74511;DHT22;62991;50.040;18.400;2024-01-10T14:46:04;5.20;32.40
74511;DHT22;62991;50.040;18.400;2024-01-10T14:49:06;5.10;33.00
74511;DHT22;62991;50.040;18.400;2024-01-10T14:52:06;4.90;33.10
74511;DHT22;62991;50.040;18.400;2024-01-10T14:55:07;4.40;33.60
74511;DHT22;62991;50.040;18.400;2024-01-10T14:58:08;4.00;34.50
74511;DHT22;62991;50.040;18.400;2024-01-10T15:01:09;3.50;35.10
74511;DHT22;62991;50.040;18.400;2024-01-10T15:04:11;3.00;35.80
74511;DHT22;62991;50.040;18.400;2024-01-10T15:07:12;2.50;36.70
74511;DHT22;62991;50.040;18.400;2024-01-10T15:10:13;2.30;37.30
74511;DHT22;62991;50.040;18.400;2024-01-10T15:13:14;2.10;38.00
74511;DHT22;62991;50.040;18.400;2024-01-10T15:16:15;1.90;38.30
74511;DHT22;62991;50.040;18.400;2024-01-10T15:19:15;1.80;38.60
74511;DHT22;62991;50.040;18.400;2024-01-10T15:22:16;1.60;38.70
74511;DHT22;62991;50.040;18.400;2024-01-10T15:25:18;1.40;39.20
74511;DHT22;62991;50.040;18.400;2024-01-10T15:28:18;1.20;39.40
74511;DHT22;62991;50.040;18.400;2024-01-10T15:31:19;1.10;39.30
74511;DHT22;62991;50.040;18.400;2024-01-10T15:34:22;0.80;39.50
74511;DHT22;62991;50.040;18.400;2024-01-10T15:37:24;0.50;40.00
74511;DHT22;62991;50.040;18.400;2024-01-10T15:40:25;0.30;40.50
74511;DHT22;62991;50.040;18.400;2024-01-10T15:43:26;0.50;40.30
74511;DHT22;62991;50.040;18.400;2024-01-10T15:46:26;0.40;40.50
74511;DHT22;62991;50.040;18.400;2024-01-10T15:49:27;0.30;40.70
74511;DHT22;62991;50.040;18.400;2024-01-10T15:52:28;0.30;41.10
74511;DHT22;62991;50.040;18.400;2024-01-10T15:55:28;0.20;41.30
74511;DHT22;62991;50.040;18.400;2024-01-10T15:58:29;0.00;41.60
74511;DHT22;62991;50.040;18.400;2024-01-10T16:01:30;-0.10;41.70
74511;DHT22;62991;50.040;18.400;2024-01-10T16:04:31;-0.30;42.10
74511;DHT22;62991;50.040;18.400;2024-01-10T16:07:31;-0.50;42.60
74511;DHT22;62991;50.040;18.400;2024-01-10T16:10:32;-0.60;42.70
74511;DHT22;62991;50.040;18.400;2024-01-10T16:13:33;-0.80;43.40
74511;DHT22;62991;50.040;18.400;2024-01-10T16:16:34;-0.80;43.40
74511;DHT22;62991;50.040;18.400;2024-01-10T16:19:36;-1.00;43.90
74511;DHT22;62991;50.040;18.400;2024-01-10T16:22:37;-1.20;44.30
74511;DHT22;62991;50.040;18.400;2024-01-10T16:25:38;-1.30;44.80
74511;DHT22;62991;50.040;18.400;2024-01-10T16:28:38;-1.30;44.90
74511;DHT22;62991;50.040;18.400;2024-01-10T16:31:39;-1.40;45.20
74511;DHT22;62991;50.040;18.400;2024-01-10T16:34:40;-1.40;45.50
74511;DHT22;62991;50.040;18.400;2024-01-10T16:37:41;-1.50;45.60
74511;DHT22;62991;50.040;18.400;2024-01-10T16:40:42;-1.40;45.70
74511;DHT22;62991;50.040;18.400;2024-01-10T16:43:42;-1.50;45.80
74511;DHT22;62991;50.040;18.400;2024-01-10T16:46:43;-1.60;46.20
74511;DHT22;62991;50.040;18.400;2024-01-10T16:49:44;-1.70;46.50
74511;DHT22;62991;50.040;18.400;2024-01-10T16:52:44;-1.70;46.60
74511;DHT22;62991;50.040;18.400;2024-01-10T16:55:45;-1.80;46.60
74511;DHT22;62991;50.040;18.400;2024-01-10T16:58:46;-1.70;46.50
74511;DHT22;62991;50.040;18.400;2024-01-10T17:01:46;-1.50;46.30
74511;DHT22;62991;50.040;18.400;2024-01-10T17:04:47;-1.40;46.10
74511;DHT22;62991;50.040;18.400;2024-01-10T17:07:48;-1.20;45.60
74511;DHT22;62991;50.040;18.400;2024-01-10T17:10:48;-1.20;45.90
74511;DHT22;62991;50.040;18.400;2024-01-10T17:13:49;-1.20;45.70
74511;DHT22;62991;50.040;18.400;2024-01-10T17:16:50;-1.20;45.50
74511;DHT22;62991;50.040;18.400;2024-01-10T17:19:51;-1.30;45.70
74511;DHT22;62991;50.040;18.400;2024-01-10T17:22:53;-1.40;46.00
74511;DHT22;62991;50.040;18.400;2024-01-10T17:25:54;-1.60;46.40
74511;DHT22;62991;50.040;18.400;2024-01-10T17:28:55;-2.00;46.90
74511;DHT22;62991;50.040;18.400;2024-01-10T17:31:56;-2.20;47.80
74511;DHT22;62991;50.040;18.400;2024-01-10T17:34:56;-2.30;48.20
74511;DHT22;62991;50.040;18.400;2024-01-10T17:37:58;-2.10;48.10
74511;DHT22;62991;50.040;18.400;2024-01-10T17:40:58;-1.80;47.70
74511;DHT22;62991;50.040;18.400;2024-01-10T17:43:59;-1.80;47.20
74511;DHT22;62991;50.040;18.400;2024-01-10T17:47:00;-2.10;48.00
74511;DHT22;62991;50.040;18.400;2024-01-10T17:50:02;-2.20;48.30
74511;DHT22;62991;50.040;18.400;2024-01-10T17:53:04;-2.40;48.80
74511;DHT22;62991;50.040;18.400;2024-01-10T17:56:06;-2.50;49.00
74511;DHT22;62991;50.040;18.400;2024-01-10T17:59:07;-2.50;49.30
74511;DHT22;62991;50.040;18.400;2024-01-10T18:02:08;-2.60;49.50
74511;DHT22;62991;50.040;18.400;2024-01-10T18:05:09;-2.40;49.20
74511;DHT22;62991;50.040;18.400;2024-01-10T18:08:10;-2.20;48.80
74511;DHT22;62991;50.040;18.400;2024-01-10T18:11:10;-2.10;48.30
74511;DHT22;62991;50.040;18.400;2024-01-10T18:14:11;-2.00;48.40
74511;DHT22;62991;50.040;18.400;2024-01-10T18:17:12;-1.90;48.10
74511;DHT22;62991;50.040;18.400;2024-01-10T18:20:12;-1.70;47.70
74511;DHT22;62991;50.040;18.400;2024-01-10T18:23:13;-1.90;47.80
74511;DHT22;62991;50.040;18.400;2024-01-10T18:26:14;-2.00;48.20
74511;DHT22;62991;50.040;18.400;2024-01-10T18:29:14;-2.00;48.40
74511;DHT22;62991;50.040;18.400;2024-01-10T18:32:15;-1.90;48.00
74511;DHT22;62991;50.040;18.400;2024-01-10T18:35:16;-1.80;47.80
74511;DHT22;62991;50.040;18.400;2024-01-10T18:38:19;-1.90;48.00
74511;DHT22;62991;50.040;18.400;2024-01-10T18:41:20;-1.90;48.10
74511;DHT22;62991;50.040;18.400;2024-01-10T18:44:20;-2.00;48.20
74511;DHT22;62991;50.040;18.400;2024-01-10T18:47:21;-2.20;48.50
74511;DHT22;62991;50.040;18.400;2024-01-10T18:50:22;-2.20;48.40
74511;DHT22;62991;50.040;18.400;2024-01-10T18:53:22;-2.50;48.80
74511;DHT22;62991;50.040;18.400;2024-01-10T18:56:23;-2.60;49.20
74511;DHT22;62991;50.040;18.400;2024-01-10T18:59:24;-2.80;49.40